createdAt,value
2023-01-20T00:00:47.890Z,9.80
2023-01-20T00:04:51.752Z,9.80
2023-01-20T00:08:54.172Z,9.57
2023-01-20T00:12:54.324Z,8.13
2023-01-20T00:16:54.458Z,9.60
2023-01-20T00:20:57.322Z,9.50
2023-01-20T00:24:57.463Z,10.37
2023-01-20T00:28:59.239Z,9.70
2023-01-20T00:32:59.357Z,9.30
2023-01-20T00:37:02.148Z,8.87
2023-01-20T00:41:02.499Z,9.47
2023-01-20T00:45:02.771Z,9.63
2023-01-20T00:49:02.962Z,9.40
2023-01-20T00:53:05.713Z,8.50
2023-01-20T00:57:06.033Z,8.43
2023-01-20T01:01:06.349Z,9.03
2023-01-20T01:05:06.755Z,9.07
2023-01-20T01:09:09.759Z,9.07
2023-01-20T01:13:10.971Z,8.57
2023-01-20T01:17:11.130Z,8.40
2023-01-20T01:21:14.514Z,8.50
2023-01-20T01:25:17.497Z,8.00
2023-01-20T01:29:17.553Z,9.10
2023-01-20T01:33:17.821Z,9.13
2023-01-20T01:37:18.090Z,9.33
2023-01-20T01:41:21.300Z,10.00
2023-01-20T01:45:27.665Z,8.77
2023-01-20T01:49:34.269Z,8.60
2023-01-20T01:53:45.358Z,8.53
2023-01-20T01:57:49.876Z,8.67
2023-01-20T02:01:55.126Z,10.97
2023-01-20T02:05:57.783Z,9.43
2023-01-20T02:09:57.995Z,9.20
2023-01-20T02:14:01.342Z,10.50
2023-01-20T02:18:24.478Z,10.23
2023-01-20T02:22:39.051Z,11.53
2023-01-20T02:27:04.683Z,11.07
2023-01-20T02:31:36.908Z,11.20
2023-01-20T02:35:46.984Z,10.60
2023-01-20T02:40:17.047Z,11.63
2023-01-20T02:44:31.718Z,11.10
2023-01-20T02:48:39.885Z,10.23
2023-01-20T02:52:47.230Z,11.23
2023-01-20T02:56:49.397Z,11.00
2023-01-20T03:00:56.747Z,11.57
2023-01-20T03:05:07.604Z,11.13
2023-01-20T03:09:16.031Z,11.30
2023-01-20T03:13:25.157Z,11.83
2023-01-20T03:17:25.994Z,11.03
2023-01-20T03:21:26.787Z,12.63
2023-01-20T03:25:30.038Z,11.53
2023-01-20T03:29:31.111Z,12.93
2023-01-20T03:33:31.535Z,13.33
2023-01-20T03:37:32.001Z,12.83
2023-01-20T03:41:51.095Z,13.93
2023-01-20T03:46:02.672Z,13.50
2023-01-20T03:50:12.977Z,13.73
2023-01-20T03:54:21.486Z,13.63
2023-01-20T03:58:30.122Z,13.37
2023-01-20T04:02:31.541Z,14.00
2023-01-20T04:06:34.931Z,13.87
2023-01-20T04:10:39.793Z,14.83
2023-01-20T04:14:42.743Z,14.53
2023-01-20T04:18:49.613Z,14.07
2023-01-20T04:22:56.107Z,16.20
2023-01-20T04:26:56.379Z,16.73
2023-01-20T04:30:59.330Z,15.87
2023-01-20T04:34:59.631Z,15.03
2023-01-20T04:38:59.785Z,15.33
2023-01-20T04:42:59.989Z,16.00
2023-01-20T04:47:03.010Z,17.07
2023-01-20T04:51:07.491Z,16.37
2023-01-20T04:55:08.580Z,15.63
2023-01-20T04:59:08.727Z,14.90
2023-01-20T05:03:11.533Z,15.87
2023-01-20T05:07:11.669Z,14.27
2023-01-20T05:11:11.797Z,13.30
2023-01-20T05:15:13.716Z,14.73
2023-01-20T05:19:17.835Z,15.63
2023-01-20T05:23:18.757Z,15.63
2023-01-20T05:27:19.011Z,15.10
2023-01-20T05:31:19.345Z,15.60
2023-01-20T05:35:22.363Z,14.80
2023-01-20T05:39:22.880Z,15.27
2023-01-20T05:43:23.047Z,15.33
2023-01-20T05:47:23.262Z,14.70
2023-01-20T05:51:26.017Z,15.50
2023-01-20T05:55:26.386Z,16.70
2023-01-20T05:59:27.214Z,20.10
2023-01-20T06:03:27.311Z,21.80
2023-01-20T06:07:30.661Z,20.60
2023-01-20T06:11:30.860Z,19.67
2023-01-20T06:15:31.093Z,16.50
2023-01-20T06:19:31.375Z,16.23
2023-01-20T06:23:34.171Z,15.33
2023-01-20T06:27:34.420Z,16.10
2023-01-20T06:31:34.901Z,16.27
2023-01-20T06:35:34.996Z,15.83
2023-01-20T06:39:37.832Z,17.17
2023-01-20T06:43:40.243Z,17.20
2023-01-20T06:47:40.455Z,15.87
2023-01-20T06:51:41.980Z,17.50
2023-01-20T06:55:44.743Z,17.50
2023-01-20T06:59:44.966Z,17.77
2023-01-20T07:03:46.128Z,18.57
2023-01-20T07:07:47.680Z,18.83
2023-01-20T07:11:50.457Z,17.73
2023-01-20T07:15:50.713Z,18.83
2023-01-20T07:19:50.864Z,18.87
2023-01-20T07:23:52.385Z,17.63
2023-01-20T07:27:55.131Z,18.87
2023-01-20T07:31:55.331Z,18.60
2023-01-20T07:35:57.239Z,18.03
2023-01-20T07:40:01.186Z,16.97
2023-01-20T07:44:04.844Z,17.33
2023-01-20T07:48:06.999Z,19.80
2023-01-20T07:52:08.618Z,18.73
2023-01-20T07:56:13.186Z,18.53
2023-01-20T08:00:18.314Z,18.70
2023-01-20T08:04:18.761Z,18.10
2023-01-20T08:08:19.204Z,17.43
2023-01-20T08:12:20.063Z,17.60
2023-01-20T08:16:24.007Z,17.60
2023-01-20T08:20:25.026Z,19.30
2023-01-20T08:24:32.096Z,18.83
2023-01-20T08:29:17.898Z,18.57
2023-01-20T08:34:01.588Z,17.50
2023-01-20T08:38:11.752Z,17.40
2023-01-20T08:42:32.122Z,17.50
2023-01-20T08:46:45.402Z,17.23
2023-01-20T08:50:50.435Z,16.63
2023-01-20T08:54:56.142Z,15.93
2023-01-20T08:59:07.490Z,15.47
2023-01-20T09:03:08.913Z,16.07
2023-01-20T09:07:14.785Z,16.27
2023-01-20T09:11:18.327Z,14.30
2023-01-20T09:15:20.952Z,13.47
2023-01-20T09:19:21.284Z,13.07
2023-01-20T09:23:24.801Z,12.53
2023-01-20T09:27:25.501Z,13.67
2023-01-20T09:31:26.346Z,11.60
2023-01-20T09:35:27.112Z,11.03
2023-01-20T09:39:42.424Z,11.57
2023-01-20T09:43:58.969Z,10.03
2023-01-20T09:48:15.517Z,10.73
2023-01-20T09:52:42.589Z,9.73
2023-01-20T09:56:55.523Z,8.57
2023-01-20T10:01:09.692Z,7.50
2023-01-20T10:05:17.924Z,7.63
2023-01-20T10:09:29.857Z,8.70
2023-01-20T10:13:41.587Z,9.33
2023-01-20T10:17:52.726Z,7.57
2023-01-20T10:22:02.941Z,7.30
2023-01-20T10:26:12.342Z,6.37
2023-01-20T10:30:32.288Z,6.27
2023-01-20T10:34:43.373Z,7.70
2023-01-20T10:38:58.621Z,6.50
2023-01-20T10:43:20.083Z,4.67
2023-01-20T10:48:07.442Z,4.27
2023-01-20T10:53:13.611Z,3.30
2023-01-20T10:57:19.092Z,2.90
2023-01-20T11:01:22.470Z,3.10
2023-01-20T11:05:37.045Z,3.23
2023-01-20T11:09:40.005Z,2.53
2023-01-20T11:13:40.487Z,3.60
2023-01-20T11:17:42.021Z,3.40
2023-01-20T11:21:44.899Z,3.20
2023-01-20T11:25:45.089Z,2.53
2023-01-20T11:29:51.818Z,2.13
2023-01-20T11:34:03.906Z,2.40
2023-01-20T11:38:27.832Z,2.00
2023-01-20T11:42:30.800Z,1.50
2023-01-20T11:46:35.232Z,1.97
2023-01-20T11:50:39.088Z,1.50
2023-01-20T11:54:41.821Z,1.60
2023-01-20T11:58:55.683Z,2.00
2023-01-20T12:03:02.237Z,1.90
2023-01-20T12:07:08.825Z,2.40
2023-01-20T12:11:15.299Z,2.00
2023-01-20T12:15:22.439Z,1.80
2023-01-20T12:19:32.727Z,1.90
2023-01-20T12:23:48.297Z,1.80
2023-01-20T12:27:56.191Z,1.93
2023-01-20T12:31:56.509Z,2.10
2023-01-20T12:36:43.425Z,2.10
2023-01-20T12:40:51.461Z,1.53
2023-01-20T12:45:01.134Z,1.77
2023-01-20T12:49:39.143Z,1.80
2023-01-20T12:54:12.903Z,2.00
2023-01-20T12:58:33.993Z,2.57
2023-01-20T13:03:40.037Z,2.93
2023-01-20T13:08:03.923Z,2.40
2023-01-20T13:12:34.246Z,3.23
2023-01-20T13:16:43.416Z,2.80
2023-01-20T13:20:48.332Z,3.00
2023-01-20T13:24:55.148Z,2.70
2023-01-20T13:29:00.823Z,2.80
2023-01-20T13:33:16.709Z,3.53
2023-01-20T13:37:31.502Z,3.60
2023-01-20T13:41:53.877Z,3.30
2023-01-20T13:46:47.392Z,3.50
2023-01-20T13:50:50.286Z,3.23
2023-01-20T13:54:51.588Z,3.80
2023-01-20T13:58:54.744Z,4.37
2023-01-20T14:02:55.429Z,4.17
2023-01-20T14:06:57.521Z,4.30
2023-01-20T14:11:18.101Z,4.60
2023-01-20T14:15:40.099Z,5.30
2023-01-20T14:19:42.014Z,6.43
2023-01-20T14:23:42.574Z,5.40
2023-01-20T14:27:47.264Z,5.70
2023-01-20T14:31:50.182Z,8.20
2023-01-20T14:35:50.419Z,8.30
2023-01-20T14:39:52.605Z,7.63
2023-01-20T14:43:52.849Z,8.60
2023-01-20T14:47:56.103Z,7.33
2023-01-20T14:51:57.009Z,6.30
2023-01-20T14:56:04.755Z,7.43
2023-01-20T15:00:23.690Z,7.10
2023-01-20T15:04:26.871Z,7.13
2023-01-20T15:08:30.008Z,7.87
2023-01-20T15:12:43.852Z,7.77
2023-01-20T15:16:53.762Z,7.60
2023-01-20T15:21:16.366Z,9.60
2023-01-20T15:25:17.492Z,8.37
2023-01-20T15:29:24.951Z,9.00
2023-01-20T15:33:26.598Z,11.80
2023-01-20T15:37:29.410Z,8.87
2023-01-20T15:41:29.646Z,9.63
2023-01-20T15:45:30.860Z,10.47
2023-01-20T15:49:31.056Z,9.17
2023-01-20T15:53:33.862Z,9.23
2023-01-20T15:57:34.073Z,8.67
2023-01-20T16:01:34.707Z,11.37
2023-01-20T16:05:34.890Z,13.47
2023-01-20T16:09:38.737Z,12.50
2023-01-20T16:13:38.920Z,10.70
2023-01-20T16:17:39.054Z,15.10
2023-01-20T16:21:39.190Z,15.43
2023-01-20T16:25:43.061Z,17.23
2023-01-20T16:29:43.869Z,15.87
2023-01-20T16:33:44.466Z,14.97
2023-01-20T16:37:45.832Z,21.97
2023-01-20T16:41:51.492Z,26.13
2023-01-20T16:45:55.344Z,19.90
2023-01-20T16:49:55.935Z,16.90
2023-01-20T16:53:58.263Z,17.40
2023-01-20T16:58:01.000Z,16.50
2023-01-20T17:02:01.724Z,15.50
2023-01-20T17:06:01.858Z,16.13
2023-01-20T17:10:02.030Z,19.93
2023-01-20T17:14:07.779Z,20.40
2023-01-20T17:18:08.126Z,18.73
2023-01-20T17:22:08.335Z,16.43
2023-01-20T17:26:10.277Z,15.63
2023-01-20T17:30:15.135Z,15.10
2023-01-20T17:34:15.501Z,17.10
2023-01-20T17:38:15.858Z,16.33
2023-01-20T17:42:17.606Z,18.17
2023-01-20T17:46:23.070Z,19.10
2023-01-20T17:50:23.375Z,17.17
2023-01-20T17:54:23.591Z,18.27
2023-01-20T17:58:23.705Z,23.67
2023-01-20T18:02:26.494Z,21.10
2023-01-20T18:06:29.567Z,16.30
2023-01-20T18:10:29.982Z,15.90
2023-01-20T18:14:30.152Z,15.70
2023-01-20T18:18:33.512Z,13.07
2023-01-20T18:22:33.935Z,18.07
2023-01-20T18:26:38.087Z,14.63
2023-01-20T18:30:38.493Z,14.90
2023-01-20T18:34:41.351Z,12.07
2023-01-20T18:38:43.477Z,10.00
2023-01-20T18:42:45.199Z,10.13
2023-01-20T18:46:45.907Z,10.57
2023-01-20T18:50:48.671Z,11.50
2023-01-20T18:54:49.437Z,12.47
2023-01-20T18:58:49.906Z,10.30
2023-01-20T19:02:53.340Z,12.63
2023-01-20T19:06:56.134Z,10.47
2023-01-20T19:10:56.410Z,10.97
2023-01-20T19:14:56.567Z,12.70
2023-01-20T19:18:59.842Z,10.40
2023-01-20T19:23:02.816Z,12.43
2023-01-20T19:27:03.819Z,12.30
2023-01-20T19:31:09.498Z,13.93
2023-01-20T19:35:11.530Z,15.27
2023-01-20T19:39:14.408Z,18.83
2023-01-20T19:43:14.810Z,19.77
2023-01-20T19:47:14.967Z,18.27
2023-01-20T19:51:19.513Z,15.93
2023-01-20T19:55:22.392Z,18.87
2023-01-20T19:59:22.724Z,16.47
2023-01-20T20:03:22.964Z,17.87
2023-01-20T20:07:23.948Z,19.00
2023-01-20T20:11:26.913Z,19.57
2023-01-20T20:15:27.187Z,19.13
2023-01-20T20:19:28.129Z,20.50
2023-01-20T20:23:29.968Z,20.07
2023-01-20T20:27:32.799Z,20.20
2023-01-20T20:31:35.931Z,20.37
2023-01-20T20:35:38.925Z,23.00
2023-01-20T20:39:39.334Z,21.43
2023-01-20T20:43:42.438Z,21.80
2023-01-20T20:47:42.669Z,20.27
2023-01-20T20:51:42.841Z,23.17
2023-01-20T20:55:43.719Z,23.60
2023-01-20T20:59:58.548Z,22.27
2023-01-20T21:04:00.840Z,21.63
2023-01-20T21:08:01.118Z,20.27
2023-01-20T21:12:01.391Z,22.03
2023-01-20T21:16:09.785Z,19.63
2023-01-20T21:20:12.988Z,18.00
2023-01-20T21:24:14.801Z,18.33
2023-01-20T21:28:16.689Z,18.63
2023-01-20T21:32:19.829Z,18.70
2023-01-20T21:36:19.987Z,18.37
2023-01-20T21:40:20.692Z,17.73
2023-01-20T21:44:34.190Z,17.90
2023-01-20T21:48:49.222Z,19.50
2023-01-20T21:52:49.981Z,20.57
2023-01-20T21:56:51.297Z,20.60
2023-01-20T22:00:51.632Z,19.80
2023-01-20T22:04:54.505Z,18.60
2023-01-20T22:08:54.679Z,15.77
2023-01-20T22:12:54.851Z,15.90
2023-01-20T22:16:55.082Z,14.57
2023-01-20T22:20:57.881Z,16.90
2023-01-20T22:24:58.090Z,15.63
2023-01-20T22:28:58.241Z,15.83
2023-01-20T22:32:58.482Z,16.37
2023-01-20T22:37:01.805Z,18.50
2023-01-20T22:41:07.154Z,16.80
2023-01-20T22:45:08.982Z,14.30
2023-01-20T22:49:09.402Z,14.00
2023-01-20T22:53:12.258Z,14.97
2023-01-20T22:57:13.378Z,15.37
2023-01-20T23:01:16.702Z,15.17
2023-01-20T23:05:17.270Z,14.50
2023-01-20T23:09:20.046Z,14.60
2023-01-20T23:13:21.277Z,15.07
2023-01-20T23:17:21.420Z,15.17
2023-01-20T23:21:22.401Z,15.60
2023-01-20T23:25:25.181Z,15.43
2023-01-20T23:29:25.302Z,14.60
2023-01-20T23:33:25.413Z,15.27
2023-01-20T23:37:25.546Z,16.67
2023-01-20T23:41:28.421Z,17.47
2023-01-20T23:45:28.947Z,16.37
2023-01-20T23:49:29.141Z,15.20
2023-01-20T23:53:32.266Z,15.10
2023-01-20T23:57:35.039Z,14.07
